createdAt,value
2022-11-16T00:01:57.275Z,166.50
2022-11-16T00:04:25.337Z,166.90
2022-11-16T00:06:53.274Z,163.20
2022-11-16T00:09:24.102Z,166.57
2022-11-16T00:11:53.882Z,165.05
2022-11-16T00:14:24.518Z,166.90
2022-11-16T00:16:52.783Z,168.45
2022-11-16T00:19:20.873Z,163.00
2022-11-16T00:21:48.781Z,170.85
2022-11-16T00:24:17.725Z,173.40
2022-11-16T00:26:45.935Z,159.07
2022-11-16T00:29:16.099Z,165.38
2022-11-16T00:31:46.000Z,162.73
2022-11-16T00:34:14.164Z,166.70
2022-11-16T00:36:42.221Z,159.27
2022-11-16T00:39:12.856Z,164.45
2022-11-16T00:41:41.084Z,170.02
2022-11-16T00:44:09.162Z,165.35
2022-11-16T00:46:37.041Z,169.68
2022-11-16T00:49:07.248Z,168.50
2022-11-16T00:51:36.088Z,172.20
2022-11-16T00:54:05.333Z,167.27
2022-11-16T00:56:33.154Z,166.95
2022-11-16T00:59:01.176Z,159.55
2022-11-16T01:01:29.303Z,157.32
2022-11-16T01:03:57.264Z,154.77
2022-11-16T01:06:26.445Z,159.25
2022-11-16T01:08:54.424Z,154.90
2022-11-16T01:11:51.288Z,159.48
2022-11-16T01:14:19.103Z,165.40
2022-11-16T01:16:50.227Z,166.13
2022-11-16T01:19:18.150Z,161.98
2022-11-16T01:21:47.472Z,158.38
2022-11-16T01:24:15.612Z,156.30
2022-11-16T01:26:43.475Z,181.77
2022-11-16T01:29:11.409Z,155.15
2022-11-16T01:31:39.172Z,152.65
2022-11-16T01:34:07.020Z,156.52
2022-11-16T01:36:36.730Z,163.98
2022-11-16T01:39:06.616Z,160.07
2022-11-16T01:41:34.552Z,158.98
2022-11-16T01:44:04.723Z,165.27
2022-11-16T01:46:32.922Z,160.15
2022-11-16T01:49:04.798Z,160.32
2022-11-16T01:51:34.575Z,151.57
2022-11-16T01:54:04.604Z,159.38
2022-11-16T01:56:37.535Z,158.00
2022-11-16T01:59:06.847Z,158.15
2022-11-16T02:01:34.815Z,159.68
2022-11-16T02:04:02.708Z,157.82
2022-11-16T02:06:35.084Z,162.82
2022-11-16T02:09:35.300Z,159.10
2022-11-16T02:12:15.868Z,154.48
2022-11-16T02:15:02.539Z,159.60
2022-11-16T02:17:39.997Z,155.02
2022-11-16T02:20:36.065Z,159.52
2022-11-16T02:23:25.822Z,162.80
2022-11-16T02:26:05.964Z,156.82
2022-11-16T02:28:45.246Z,160.38
2022-11-16T02:31:17.764Z,159.23
2022-11-16T02:33:52.158Z,159.35
2022-11-16T02:36:23.509Z,155.93
2022-11-16T02:38:58.092Z,161.85
2022-11-16T02:41:28.327Z,157.20
2022-11-16T02:44:02.078Z,158.15
2022-11-16T02:46:37.260Z,158.45
2022-11-16T02:49:08.929Z,153.07
2022-11-16T02:51:40.053Z,162.20
2022-11-16T02:54:13.052Z,156.27
2022-11-16T02:56:45.116Z,154.80
2022-11-16T02:59:17.440Z,149.57
2022-11-16T03:01:51.819Z,155.88
2022-11-16T03:04:25.998Z,152.07
2022-11-16T03:06:56.314Z,156.15
2022-11-16T03:09:30.023Z,157.23
2022-11-16T03:12:01.259Z,157.68
2022-11-16T03:14:34.770Z,156.98
2022-11-16T03:17:06.913Z,158.75
2022-11-16T03:19:38.870Z,151.93
2022-11-16T03:22:11.757Z,152.88
2022-11-16T03:24:40.272Z,151.75
2022-11-16T03:27:18.200Z,156.13
2022-11-16T03:29:54.994Z,153.55
2022-11-16T03:32:29.492Z,147.15
2022-11-16T03:35:01.521Z,154.27
2022-11-16T03:37:30.789Z,150.15
2022-11-16T03:40:01.158Z,154.93
2022-11-16T03:42:29.734Z,157.88
2022-11-16T03:44:57.977Z,153.88
2022-11-16T03:47:27.353Z,161.68
2022-11-16T03:49:55.159Z,154.32
2022-11-16T03:52:23.251Z,159.18
2022-11-16T03:54:51.091Z,162.23
2022-11-16T03:57:19.291Z,160.70
2022-11-16T03:59:47.399Z,162.70
2022-11-16T04:02:15.247Z,160.95
2022-11-16T04:05:01.686Z,165.85
2022-11-16T04:07:47.252Z,158.07
2022-11-16T04:10:32.907Z,156.82
2022-11-16T04:13:19.801Z,157.07
2022-11-16T04:16:04.945Z,163.80
2022-11-16T04:18:50.355Z,161.50
2022-11-16T04:21:41.639Z,160.73
2022-11-16T04:24:13.697Z,156.73
2022-11-16T04:27:02.462Z,161.40
2022-11-16T04:29:31.011Z,157.80
2022-11-16T04:32:16.469Z,159.23
2022-11-16T04:35:01.895Z,156.88
2022-11-16T04:37:48.325Z,158.52
2022-11-16T04:40:17.268Z,154.00
2022-11-16T04:42:45.130Z,158.75
2022-11-16T04:45:30.272Z,163.77
2022-11-16T04:47:58.070Z,159.15
2022-11-16T04:50:25.829Z,156.70
2022-11-16T04:52:55.010Z,161.45
2022-11-16T04:55:22.906Z,159.90
2022-11-16T04:57:50.664Z,163.10
2022-11-16T05:00:19.066Z,165.93
2022-11-16T05:02:47.251Z,166.18
2022-11-16T05:05:15.454Z,159.95
2022-11-16T05:07:43.391Z,170.40
2022-11-16T05:10:13.170Z,165.82
2022-11-16T05:12:41.536Z,156.63
2022-11-16T05:15:10.438Z,158.88
2022-11-16T05:17:38.363Z,165.77
2022-11-16T05:20:24.667Z,167.35
2022-11-16T05:22:55.930Z,165.98
2022-11-16T05:25:25.462Z,159.00
2022-11-16T05:27:53.502Z,167.57
2022-11-16T05:30:21.394Z,170.70
2022-11-16T05:32:49.210Z,170.48
2022-11-16T05:35:17.102Z,174.40
2022-11-16T05:37:44.991Z,164.40
2022-11-16T05:40:13.442Z,162.57
2022-11-16T05:42:42.732Z,166.13
2022-11-16T05:45:11.704Z,165.57
2022-11-16T05:47:39.716Z,165.50
2022-11-16T05:50:08.931Z,170.80
2022-11-16T05:52:36.767Z,166.73
2022-11-16T05:55:05.071Z,165.40
2022-11-16T05:57:32.871Z,165.93
2022-11-16T06:00:02.171Z,168.25
2022-11-16T06:02:33.752Z,173.07
2022-11-16T06:05:02.129Z,166.30
2022-11-16T06:07:30.113Z,168.10
2022-11-16T06:09:57.967Z,177.68
2022-11-16T06:12:25.816Z,167.70
2022-11-16T06:14:53.610Z,169.70
2022-11-16T06:17:22.774Z,169.82
2022-11-16T06:19:50.665Z,168.52
2022-11-16T06:22:18.576Z,165.52
2022-11-16T06:24:46.805Z,165.27
2022-11-16T06:27:14.661Z,165.38
2022-11-16T06:29:42.543Z,169.98
2022-11-16T06:32:10.367Z,161.85
2022-11-16T06:34:39.601Z,163.23
2022-11-16T06:37:07.445Z,165.13
2022-11-16T06:39:35.254Z,160.27
2022-11-16T06:42:03.137Z,164.95
2022-11-16T06:44:30.951Z,158.20
2022-11-16T06:46:59.240Z,161.50
2022-11-16T06:49:27.036Z,165.15
2022-11-16T06:51:56.212Z,164.00
2022-11-16T06:54:24.179Z,165.02
2022-11-16T06:56:52.412Z,165.57
2022-11-16T06:59:20.238Z,171.57
2022-11-16T07:01:48.196Z,164.10
2022-11-16T07:04:16.198Z,170.75
2022-11-16T07:06:44.276Z,176.50
2022-11-16T07:09:16.014Z,164.10
2022-11-16T07:11:43.767Z,167.25
2022-11-16T07:14:12.550Z,162.48
2022-11-16T07:16:40.392Z,165.65
2022-11-16T07:19:08.307Z,166.25
2022-11-16T07:21:36.084Z,170.00
2022-11-16T07:24:04.264Z,171.25
2022-11-16T07:26:35.074Z,163.95
2022-11-16T07:29:03.324Z,162.02
2022-11-16T07:31:31.987Z,162.90
2022-11-16T07:33:59.818Z,159.25
2022-11-16T07:36:27.927Z,164.20
2022-11-16T07:38:55.828Z,156.10
2022-11-16T07:41:23.963Z,163.57
2022-11-16T07:43:53.549Z,160.27
2022-11-16T07:46:47.524Z,158.93
2022-11-16T07:49:14.627Z,155.43
2022-11-16T07:51:42.637Z,157.85
2022-11-16T07:54:12.851Z,161.95
2022-11-16T07:56:41.082Z,162.80
2022-11-16T07:59:12.929Z,164.18
2022-11-16T08:01:40.786Z,162.10
2022-11-16T08:04:08.675Z,165.15
2022-11-16T08:06:36.516Z,163.55
2022-11-16T08:09:04.511Z,162.82
2022-11-16T08:11:32.410Z,164.80
2022-11-16T08:14:00.338Z,166.02
2022-11-16T08:16:29.560Z,165.43
2022-11-16T08:18:57.728Z,167.38
2022-11-16T08:21:25.716Z,166.65
2022-11-16T08:23:58.187Z,163.88
2022-11-16T08:26:27.123Z,162.27
2022-11-16T08:28:56.601Z,169.77
2022-11-16T08:31:27.596Z,169.93
2022-11-16T08:33:57.174Z,174.25
2022-11-16T08:36:25.000Z,168.93
2022-11-16T08:38:53.949Z,175.07
2022-11-16T08:41:22.651Z,180.68
2022-11-16T08:43:53.371Z,168.73
2022-11-16T08:46:21.938Z,175.10
2022-11-16T08:48:50.038Z,170.35
2022-11-16T08:51:20.521Z,162.48
2022-11-16T08:53:49.441Z,162.93
2022-11-16T08:56:19.457Z,169.30
2022-11-16T08:58:50.262Z,175.02
2022-11-16T09:01:22.921Z,168.43
2022-11-16T09:03:51.323Z,173.65
2022-11-16T09:06:20.861Z,175.10
2022-11-16T09:08:49.946Z,171.38
2022-11-16T09:11:20.994Z,169.85
2022-11-16T09:13:50.402Z,173.55
2022-11-16T09:16:20.938Z,178.93
2022-11-16T09:18:49.929Z,175.75
2022-11-16T09:21:20.584Z,171.48
2022-11-16T09:23:48.735Z,167.50
2022-11-16T09:26:18.990Z,179.23
2022-11-16T09:28:47.202Z,174.43
2022-11-16T09:31:18.964Z,175.02
2022-11-16T09:33:50.980Z,177.40
2022-11-16T09:36:20.801Z,170.68
2022-11-16T09:42:03.454Z,173.57
2022-11-16T09:44:53.212Z,172.73
2022-11-16T09:47:23.247Z,172.95
2022-11-16T09:49:59.760Z,168.82
2022-11-16T09:52:35.659Z,168.52
2022-11-16T09:55:16.626Z,166.93
2022-11-16T09:57:46.301Z,169.60
2022-11-16T10:00:19.544Z,168.90
2022-11-16T10:03:00.855Z,167.07
2022-11-16T10:05:33.855Z,186.50
2022-11-16T10:08:13.447Z,186.32
2022-11-16T10:10:55.580Z,180.65
2022-11-16T10:13:38.866Z,177.93
2022-11-16T10:16:14.820Z,183.80
2022-11-16T10:18:56.980Z,174.52
2022-11-16T10:21:42.768Z,178.10
2022-11-16T10:24:25.707Z,168.82
2022-11-16T10:27:03.854Z,173.60
2022-11-16T10:29:46.500Z,170.27
2022-11-16T10:32:26.072Z,169.73
2022-11-16T10:34:56.318Z,172.30
2022-11-16T10:37:29.963Z,176.50
2022-11-16T10:39:59.533Z,174.85
2022-11-16T10:42:33.439Z,181.82
2022-11-16T10:45:07.527Z,176.65
2022-11-16T10:47:42.617Z,179.43
2022-11-16T10:50:31.796Z,174.52
2022-11-16T10:52:59.858Z,178.43
2022-11-16T10:55:30.100Z,178.60
2022-11-16T10:58:00.284Z,180.80
2022-11-16T11:00:36.188Z,184.05
2022-11-16T11:03:04.099Z,188.38
2022-11-16T11:05:32.464Z,183.45
2022-11-16T11:08:06.105Z,185.80
2022-11-16T11:10:37.325Z,189.43
2022-11-16T11:13:26.337Z,179.02
2022-11-16T11:16:14.915Z,188.05
2022-11-16T11:18:42.952Z,181.48
2022-11-16T11:21:18.642Z,180.55
2022-11-16T11:23:48.938Z,180.07
2022-11-16T11:26:36.464Z,180.02
2022-11-16T11:29:24.039Z,183.48
2022-11-16T11:31:54.226Z,189.32
2022-11-16T11:34:24.756Z,184.63
2022-11-16T11:36:56.284Z,193.57
2022-11-16T11:39:31.507Z,189.23
2022-11-16T11:42:06.789Z,186.48
2022-11-16T11:44:43.736Z,181.02
2022-11-16T11:47:57.225Z,179.57
2022-11-16T11:50:32.758Z,179.88
2022-11-16T11:53:04.446Z,183.52
2022-11-16T11:55:32.968Z,181.77
2022-11-16T11:58:04.812Z,187.80
2022-11-16T12:00:42.400Z,187.57
2022-11-16T12:03:44.831Z,177.35
2022-11-16T12:06:20.905Z,178.85
2022-11-16T12:09:14.300Z,182.80
2022-11-16T12:11:54.922Z,177.93
2022-11-16T12:14:39.815Z,181.40
2022-11-16T12:17:13.299Z,180.38
2022-11-16T12:20:02.553Z,177.27
2022-11-16T12:23:03.976Z,175.40
2022-11-16T12:25:38.955Z,180.98
2022-11-16T12:28:22.950Z,176.10
2022-11-16T12:31:02.535Z,182.32
2022-11-16T12:33:42.941Z,174.10
2022-11-16T12:36:22.666Z,170.65
2022-11-16T12:39:02.108Z,172.13
2022-11-16T12:42:10.247Z,169.07
2022-11-16T12:45:03.400Z,168.38
2022-11-16T12:47:43.603Z,165.05
2022-11-16T12:50:33.401Z,168.10
2022-11-16T12:53:24.345Z,175.40
2022-11-16T12:56:00.463Z,172.60
2022-11-16T12:58:41.072Z,173.82
2022-11-16T13:01:18.596Z,175.98
2022-11-16T13:03:52.327Z,177.13
2022-11-16T13:06:22.652Z,181.38
2022-11-16T13:09:01.706Z,178.35
2022-11-16T13:11:32.990Z,183.20
2022-11-16T13:14:04.049Z,188.65
2022-11-16T13:16:32.387Z,182.13
2022-11-16T13:19:04.458Z,195.63
2022-11-16T13:21:46.632Z,184.48
2022-11-16T13:24:25.575Z,182.40
2022-11-16T13:27:04.639Z,186.20
2022-11-16T13:29:38.832Z,193.50
2022-11-16T13:32:12.151Z,194.55
2022-11-16T13:37:48.878Z,184.20
2022-11-16T13:40:29.211Z,183.48
2022-11-16T13:43:15.786Z,182.13
2022-11-16T13:45:52.255Z,180.98
2022-11-16T13:48:22.434Z,175.48
2022-11-16T13:50:55.517Z,189.98
2022-11-16T13:54:25.114Z,185.68
2022-11-16T13:56:18.293Z,192.80
2022-11-16T13:58:48.163Z,187.88
2022-11-16T14:01:17.694Z,195.63
2022-11-16T14:03:46.583Z,188.45
2022-11-16T14:06:57.900Z,186.63
2022-11-16T14:09:46.648Z,187.00
2022-11-16T14:12:52.243Z,182.00
2022-11-16T14:15:22.021Z,180.77
2022-11-16T14:17:51.873Z,173.35
2022-11-16T14:20:35.979Z,175.82
2022-11-16T14:23:15.378Z,179.25
2022-11-16T14:25:48.884Z,175.98
2022-11-16T14:28:32.931Z,175.23
2022-11-16T14:31:14.749Z,175.60
2022-11-16T14:33:43.418Z,174.50
2022-11-16T14:36:12.347Z,178.70
2022-11-16T14:38:44.433Z,179.13
2022-11-16T14:41:21.177Z,180.23
2022-11-16T14:43:52.945Z,177.05
2022-11-16T14:46:24.152Z,181.40
2022-11-16T14:48:52.907Z,188.82
2022-11-16T14:51:24.590Z,197.32
2022-11-16T14:53:57.643Z,180.98
2022-11-16T14:56:25.480Z,195.70
2022-11-16T14:58:55.338Z,183.02
2022-11-16T15:01:25.912Z,178.88
2022-11-16T15:03:58.465Z,187.25
2022-11-16T15:06:27.479Z,178.73
2022-11-16T15:09:00.588Z,184.88
2022-11-16T15:11:44.768Z,183.13
2022-11-16T15:14:12.794Z,179.02
2022-11-16T15:16:50.263Z,177.35
2022-11-16T15:19:18.302Z,183.88
2022-11-16T15:21:53.066Z,178.52
2022-11-16T15:24:31.522Z,179.27
2022-11-16T15:27:11.805Z,189.65
2022-11-16T15:29:40.155Z,182.55
2022-11-16T15:32:13.998Z,180.82
2022-11-16T15:34:41.947Z,174.98
2022-11-16T15:37:15.209Z,188.75
2022-11-16T15:39:45.083Z,184.90
2022-11-16T15:42:16.815Z,174.30
2022-11-16T15:44:45.352Z,174.40
2022-11-16T15:47:15.062Z,172.30
2022-11-16T15:49:44.139Z,172.07
2022-11-16T15:52:12.035Z,173.77
2022-11-16T15:54:53.744Z,169.15
2022-11-16T15:57:24.801Z,179.10
2022-11-16T15:59:55.656Z,181.80
2022-11-16T16:02:27.828Z,177.00
2022-11-16T16:04:55.709Z,180.68
2022-11-16T16:07:39.903Z,176.07
2022-11-16T16:10:23.738Z,168.40
2022-11-16T16:12:56.176Z,165.80
2022-11-16T16:15:25.829Z,177.70
2022-11-16T16:17:55.198Z,178.65
2022-11-16T16:20:25.415Z,176.30
2022-11-16T16:22:54.250Z,178.27
2022-11-16T16:25:31.230Z,173.57
2022-11-16T16:28:00.798Z,172.90
2022-11-16T16:30:30.507Z,171.18
2022-11-16T16:32:58.743Z,171.38
2022-11-16T16:35:27.327Z,177.45
2022-11-16T16:37:59.352Z,176.68
2022-11-16T16:40:27.476Z,179.23
2022-11-16T16:42:56.692Z,212.65
2022-11-16T16:45:33.863Z,204.32
2022-11-16T16:48:01.813Z,183.00
2022-11-16T16:50:29.960Z,178.48
2022-11-16T16:52:57.788Z,179.32
2022-11-16T16:55:26.002Z,182.70
2022-11-16T16:57:54.100Z,176.40
2022-11-16T17:00:22.130Z,172.98
2022-11-16T17:02:51.816Z,178.98
2022-11-16T17:05:19.647Z,178.57
2022-11-16T17:07:47.560Z,172.57
2022-11-16T17:10:15.380Z,172.80
2022-11-16T17:12:43.204Z,184.32
2022-11-16T17:15:16.460Z,187.45
2022-11-16T17:17:49.203Z,180.23
2022-11-16T17:20:18.619Z,182.75
2022-11-16T17:22:46.448Z,183.98
2022-11-16T17:25:14.965Z,184.65
2022-11-16T17:27:42.800Z,183.60
2022-11-16T17:30:11.864Z,177.48
2022-11-16T17:32:39.937Z,180.73
2022-11-16T17:35:08.226Z,179.85
2022-11-16T17:37:37.610Z,178.82
2022-11-16T17:40:06.835Z,181.65
2022-11-16T17:42:35.681Z,184.32
2022-11-16T17:45:06.036Z,177.73
2022-11-16T17:47:34.532Z,173.25
2022-11-16T17:50:03.535Z,180.80
2022-11-16T17:52:31.652Z,201.88
2022-11-16T17:55:00.931Z,193.63
2022-11-16T17:57:28.779Z,187.88
2022-11-16T17:59:58.648Z,184.00
2022-11-16T18:02:26.489Z,174.98
2022-11-16T18:04:54.370Z,172.13
2022-11-16T18:07:22.242Z,180.70
2022-11-16T18:09:50.803Z,187.98
2022-11-16T18:12:19.988Z,177.75
2022-11-16T18:15:13.485Z,177.05
2022-11-16T18:17:36.421Z,171.18
2022-11-16T18:20:05.081Z,169.70
2022-11-16T18:22:32.902Z,172.15
2022-11-16T18:25:00.998Z,176.80
2022-11-16T18:27:30.198Z,175.70
2022-11-16T18:29:58.067Z,174.85
2022-11-16T18:32:25.853Z,172.50
2022-11-16T18:34:54.184Z,174.65
2022-11-16T18:37:22.012Z,177.63
2022-11-16T18:39:49.857Z,169.30
2022-11-16T18:42:17.664Z,168.77
2022-11-16T18:44:48.074Z,174.63
2022-11-16T18:47:15.881Z,167.60
2022-11-16T18:49:43.705Z,170.48
2022-11-16T18:52:11.720Z,171.77
2022-11-16T18:54:39.602Z,173.77
2022-11-16T18:57:07.763Z,174.32
2022-11-16T18:59:35.600Z,167.77
2022-11-16T19:02:04.868Z,169.48
2022-11-16T19:04:32.732Z,166.10
2022-11-16T19:07:00.673Z,169.65
2022-11-16T19:09:28.625Z,166.02
2022-11-16T19:11:56.451Z,168.40
2022-11-16T19:14:25.403Z,161.43
2022-11-16T19:16:57.065Z,160.98
2022-11-16T19:19:27.832Z,159.32
2022-11-16T19:21:57.279Z,158.82
2022-11-16T19:24:25.544Z,165.10
2022-11-16T19:26:53.762Z,163.93
2022-11-16T19:29:23.912Z,167.52
2022-11-16T19:31:51.995Z,163.07
2022-11-16T19:34:20.594Z,161.95
2022-11-16T19:36:52.118Z,163.00
2022-11-16T19:39:20.003Z,164.45
2022-11-16T19:41:48.003Z,160.32
2022-11-16T19:44:16.075Z,164.05
2022-11-16T19:46:45.142Z,162.73
2022-11-16T19:49:19.647Z,163.85
2022-11-16T19:51:49.776Z,157.77
2022-11-16T19:54:20.585Z,154.50
2022-11-16T19:56:54.654Z,149.40
2022-11-16T19:59:36.917Z,144.98
2022-11-16T20:02:07.845Z,145.60
2022-11-16T20:04:36.019Z,153.23
2022-11-16T20:07:05.625Z,156.95
2022-11-16T20:09:36.656Z,157.23
2022-11-16T20:12:07.032Z,157.57
2022-11-16T20:14:35.303Z,158.82
2022-11-16T20:17:08.854Z,159.38
2022-11-16T20:19:47.983Z,158.45
2022-11-16T20:22:18.657Z,204.40
2022-11-16T20:24:49.128Z,158.75
2022-11-16T20:27:17.958Z,160.65
2022-11-16T20:29:47.416Z,163.38
2022-11-16T20:32:16.781Z,159.63
2022-11-16T20:34:44.847Z,158.13
2022-11-16T20:37:12.679Z,161.50
2022-11-16T20:39:42.376Z,152.13
2022-11-16T20:42:10.510Z,146.15
2022-11-16T20:44:39.080Z,148.80
2022-11-16T20:47:07.341Z,149.35
2022-11-16T20:49:35.762Z,156.43
2022-11-16T20:52:04.084Z,151.30
2022-11-16T20:54:32.192Z,149.27
2022-11-16T20:57:04.136Z,148.63
2022-11-16T20:59:31.996Z,147.40
2022-11-16T21:01:59.882Z,158.88
2022-11-16T21:04:27.700Z,159.55
2022-11-16T21:06:55.685Z,156.00
2022-11-16T21:09:23.894Z,153.88
2022-11-16T21:12:08.962Z,155.77
2022-11-16T21:14:38.251Z,160.18
2022-11-16T21:17:06.353Z,156.73
2022-11-16T21:19:34.243Z,149.68
2022-11-16T21:22:02.096Z,155.02
2022-11-16T21:24:31.692Z,154.85
2022-11-16T21:26:59.538Z,149.30
2022-11-16T21:29:28.199Z,148.35
2022-11-16T21:31:57.426Z,152.48
2022-11-16T21:34:27.809Z,154.82
2022-11-16T21:36:55.695Z,151.80
2022-11-16T21:39:23.511Z,150.27
2022-11-16T21:41:51.399Z,143.25
2022-11-16T21:44:19.229Z,141.07
2022-11-16T21:46:47.299Z,143.05
2022-11-16T21:49:16.528Z,145.20
2022-11-16T21:51:44.313Z,148.50
2022-11-16T21:54:12.102Z,152.15
2022-11-16T21:56:39.900Z,149.30
2022-11-16T21:59:07.680Z,146.95
2022-11-16T22:01:59.369Z,145.63
2022-11-16T22:04:45.987Z,146.75
2022-11-16T22:07:32.528Z,146.75
2022-11-16T22:10:00.502Z,141.43
2022-11-16T22:12:28.543Z,142.32
2022-11-16T22:14:56.986Z,150.88
2022-11-16T22:17:24.799Z,151.82
2022-11-16T22:19:54.342Z,144.65
2022-11-16T22:22:22.480Z,150.25
2022-11-16T22:24:50.352Z,148.15
2022-11-16T22:27:20.227Z,150.70
2022-11-16T22:29:48.204Z,147.15
2022-11-16T22:32:16.052Z,148.75
2022-11-16T22:34:43.970Z,148.35
2022-11-16T22:37:13.158Z,149.48
2022-11-16T22:39:41.175Z,152.35
2022-11-16T22:42:08.951Z,144.93
2022-11-16T22:44:36.783Z,141.40
2022-11-16T22:47:04.984Z,140.27
2022-11-16T22:49:33.021Z,141.35
2022-11-16T22:52:00.954Z,146.57
2022-11-16T22:54:31.076Z,148.88
2022-11-16T22:56:59.053Z,150.88
2022-11-16T22:59:26.856Z,147.75
2022-11-16T23:01:54.827Z,149.88
2022-11-16T23:04:22.691Z,149.63
2022-11-16T23:06:50.639Z,147.30
2022-11-16T23:09:18.434Z,146.25
2022-11-16T23:12:04.803Z,138.05
2022-11-16T23:14:49.975Z,135.30
2022-11-16T23:17:17.804Z,140.45
2022-11-16T23:20:02.956Z,137.52
2022-11-16T23:22:48.173Z,140.30
2022-11-16T23:25:33.037Z,144.02
2022-11-16T23:28:06.458Z,148.73
2022-11-16T23:30:34.570Z,145.52
2022-11-16T23:33:02.440Z,154.38
2022-11-16T23:35:30.374Z,147.57
2022-11-16T23:37:59.294Z,142.23
2022-11-16T23:40:28.980Z,147.32
2022-11-16T23:43:14.950Z,154.77
2022-11-16T23:45:45.129Z,152.18
2022-11-16T23:48:15.670Z,147.95
2022-11-16T23:50:44.455Z,148.63
2022-11-16T23:53:13.483Z,152.65
2022-11-16T23:55:41.389Z,148.50
2022-11-16T23:58:14.251Z,146.35
